createdAt,value
2019-03-06T00:00:13.597Z,0.00
2019-03-06T00:01:13.592Z,0.00
2019-03-06T00:02:13.582Z,0.00
2019-03-06T00:03:13.577Z,0.00
2019-03-06T00:04:13.569Z,0.00
2019-03-06T00:05:13.559Z,0.00
2019-03-06T00:06:16.726Z,0.00
2019-03-06T00:07:13.563Z,0.00
2019-03-06T00:08:13.539Z,0.00
2019-03-06T00:09:13.530Z,0.00
2019-03-06T00:10:13.522Z,0.00
2019-03-06T00:11:13.520Z,0.00
2019-03-06T00:12:13.510Z,0.00
2019-03-06T00:13:13.504Z,0.00
2019-03-06T00:14:13.495Z,0.00
2019-03-06T00:15:13.488Z,0.00
2019-03-06T00:16:13.480Z,0.00
2019-03-06T00:17:13.472Z,0.00
2019-03-06T00:18:13.471Z,0.00
2019-03-06T00:19:13.473Z,0.00
2019-03-06T00:20:13.451Z,0.00
2019-03-06T00:21:13.445Z,0.00
2019-03-06T00:22:13.434Z,0.00
2019-03-06T00:23:13.429Z,0.00
2019-03-06T00:24:13.422Z,0.00
2019-03-06T00:25:13.414Z,0.00
2019-03-06T00:26:13.418Z,0.00
2019-03-06T00:27:13.400Z,0.00
2019-03-06T00:28:13.409Z,0.00
2019-03-06T00:29:13.385Z,0.00
2019-03-06T00:30:13.378Z,0.00
2019-03-06T00:31:13.372Z,0.00
2019-03-06T00:32:13.368Z,0.00
2019-03-06T00:33:13.356Z,0.00
2019-03-06T00:34:13.352Z,0.00
2019-03-06T00:35:13.342Z,0.00
2019-03-06T00:36:13.335Z,0.00
2019-03-06T00:37:13.330Z,0.00
2019-03-06T00:38:13.321Z,0.00
2019-03-06T00:39:13.318Z,0.00
2019-03-06T00:40:13.307Z,0.00
2019-03-06T00:41:13.301Z,0.00
2019-03-06T00:42:13.296Z,0.00
2019-03-06T00:43:13.286Z,0.00
2019-03-06T00:44:13.280Z,0.00
2019-03-06T00:45:13.273Z,0.00
2019-03-06T00:46:13.263Z,0.00
2019-03-06T00:47:13.252Z,0.00
2019-03-06T00:48:13.251Z,0.00
2019-03-06T00:49:13.241Z,0.00
2019-03-06T00:50:13.236Z,0.00
2019-03-06T00:51:13.228Z,0.00
2019-03-06T00:52:13.221Z,0.00
2019-03-06T00:53:13.211Z,0.00
2019-03-06T00:54:13.205Z,0.00
2019-03-06T00:55:13.199Z,0.00
2019-03-06T00:56:13.218Z,0.00
2019-03-06T00:57:13.182Z,0.00
2019-03-06T00:58:13.275Z,0.00
2019-03-06T00:59:13.170Z,0.00
2019-03-06T01:00:13.161Z,0.00
2019-03-06T01:01:13.155Z,0.00
2019-03-06T01:02:13.147Z,0.00
2019-03-06T01:03:13.140Z,0.00
2019-03-06T01:04:13.133Z,0.00
2019-03-06T01:05:13.127Z,0.00
2019-03-06T01:06:13.119Z,0.00
2019-03-06T01:07:13.111Z,0.00
2019-03-06T01:08:13.104Z,0.00
2019-03-06T01:09:13.095Z,0.00
2019-03-06T01:10:13.089Z,0.00
2019-03-06T01:11:13.081Z,0.00
2019-03-06T01:12:13.074Z,0.00
2019-03-06T01:13:13.065Z,0.00
2019-03-06T01:14:13.062Z,0.00
2019-03-06T01:15:13.049Z,0.00
2019-03-06T01:16:13.045Z,0.00
2019-03-06T01:17:13.038Z,0.00
2019-03-06T01:18:13.029Z,0.00
2019-03-06T01:19:13.021Z,0.00
2019-03-06T01:20:13.016Z,0.00
2019-03-06T01:21:13.004Z,0.00
2019-03-06T01:22:12.998Z,0.00
2019-03-06T01:23:12.990Z,0.00
2019-03-06T01:24:12.985Z,0.00
2019-03-06T01:25:12.977Z,0.00
2019-03-06T01:26:12.969Z,0.00
2019-03-06T01:27:12.961Z,0.00
2019-03-06T01:28:12.956Z,0.00
2019-03-06T01:29:12.944Z,0.00
2019-03-06T01:30:12.940Z,0.00
2019-03-06T01:31:12.934Z,0.00
2019-03-06T01:32:12.925Z,0.00
2019-03-06T01:33:12.920Z,0.00
2019-03-06T01:34:12.913Z,0.00
2019-03-06T01:35:12.901Z,0.00
2019-03-06T01:36:12.890Z,0.00
2019-03-06T01:37:12.882Z,0.00
2019-03-06T01:38:12.876Z,0.00
2019-03-06T01:39:12.868Z,0.00
2019-03-06T01:40:12.875Z,0.00
2019-03-06T01:41:12.855Z,0.00
2019-03-06T01:42:12.853Z,0.00
2019-03-06T01:43:12.838Z,0.00
2019-03-06T01:44:12.831Z,0.00
2019-03-06T01:45:12.835Z,0.00
2019-03-06T01:46:12.814Z,0.00
2019-03-06T01:47:12.808Z,0.00
2019-03-06T01:48:12.800Z,0.00
2019-03-06T01:49:12.788Z,0.00
2019-03-06T01:50:12.782Z,0.00
2019-03-06T01:51:12.773Z,0.00
2019-03-06T01:52:12.766Z,0.00
2019-03-06T01:53:12.759Z,0.00
2019-03-06T01:54:12.753Z,0.00
2019-03-06T01:55:12.743Z,0.00
2019-03-06T01:56:12.735Z,0.00
2019-03-06T01:57:12.731Z,0.00
2019-03-06T01:58:12.736Z,0.00
2019-03-06T01:59:12.711Z,0.00
2019-03-06T02:00:12.703Z,0.00
2019-03-06T02:01:12.696Z,0.00
2019-03-06T02:02:12.683Z,0.00
2019-03-06T02:03:12.680Z,0.00
2019-03-06T02:04:12.673Z,0.00
2019-03-06T02:05:12.660Z,0.00
2019-03-06T02:06:12.655Z,0.00
2019-03-06T02:07:12.647Z,0.00
2019-03-06T02:08:12.641Z,0.00
2019-03-06T02:09:12.631Z,0.00
2019-03-06T02:10:12.621Z,0.00
2019-03-06T02:11:12.617Z,0.00
2019-03-06T02:12:12.614Z,0.00
2019-03-06T02:13:12.603Z,0.00
2019-03-06T02:14:12.616Z,0.00
2019-03-06T02:15:12.586Z,0.00
2019-03-06T02:16:12.579Z,0.00
2019-03-06T02:17:12.568Z,0.00
2019-03-06T02:18:12.564Z,0.00
2019-03-06T02:19:12.556Z,0.00
2019-03-06T02:20:12.547Z,0.00
2019-03-06T02:21:12.538Z,0.00
2019-03-06T02:22:12.531Z,0.00
2019-03-06T02:23:12.522Z,0.00
2019-03-06T02:24:12.527Z,0.00
2019-03-06T02:25:12.503Z,0.00
2019-03-06T02:26:12.501Z,0.00
2019-03-06T02:27:12.495Z,0.00
2019-03-06T02:28:12.489Z,0.00
2019-03-06T02:29:12.472Z,0.00
2019-03-06T02:30:12.481Z,0.00
2019-03-06T02:31:12.458Z,0.00
2019-03-06T02:32:12.453Z,0.00
2019-03-06T02:33:12.457Z,0.00
2019-03-06T02:34:12.439Z,0.00
2019-03-06T02:35:12.430Z,0.00
2019-03-06T02:36:12.426Z,0.00
2019-03-06T02:37:12.418Z,0.00
2019-03-06T02:38:12.404Z,0.00
2019-03-06T02:39:12.396Z,0.00
2019-03-06T02:40:12.395Z,0.00
2019-03-06T02:41:12.381Z,0.00
2019-03-06T02:42:12.378Z,0.00
2019-03-06T02:43:12.379Z,0.00
2019-03-06T02:44:12.369Z,0.00
2019-03-06T02:45:12.350Z,0.00
2019-03-06T02:46:12.357Z,0.00
2019-03-06T02:47:12.346Z,0.00
2019-03-06T02:48:12.329Z,0.00
2019-03-06T02:49:12.320Z,0.00
2019-03-06T02:50:12.309Z,0.00
2019-03-06T02:51:12.312Z,0.00
2019-03-06T02:52:12.293Z,0.00
2019-03-06T02:53:12.292Z,0.00
2019-03-06T02:54:12.274Z,0.00
2019-03-06T02:55:12.279Z,0.00
2019-03-06T02:56:12.285Z,0.00
2019-03-06T02:57:12.259Z,0.00
2019-03-06T02:58:12.250Z,0.00
2019-03-06T02:59:12.239Z,0.00
2019-03-06T03:00:12.231Z,0.00
2019-03-06T03:01:12.222Z,0.00
2019-03-06T03:02:12.214Z,0.00
2019-03-06T03:03:12.207Z,0.00
2019-03-06T03:04:12.203Z,0.00
2019-03-06T03:05:12.191Z,0.00
2019-03-06T03:06:12.198Z,0.00
2019-03-06T03:07:12.176Z,0.00
2019-03-06T03:08:12.186Z,0.00
2019-03-06T03:09:12.163Z,0.00
2019-03-06T03:10:12.173Z,0.00
2019-03-06T03:11:12.144Z,0.00
2019-03-06T03:12:12.139Z,0.00
2019-03-06T03:13:12.125Z,0.00
2019-03-06T03:14:12.124Z,0.00
2019-03-06T03:15:12.114Z,0.00
2019-03-06T03:16:12.114Z,0.00
2019-03-06T03:17:12.098Z,0.00
2019-03-06T03:18:12.097Z,0.00
2019-03-06T03:19:12.087Z,0.00
2019-03-06T03:20:12.075Z,0.00
2019-03-06T03:21:12.065Z,0.00
2019-03-06T03:22:12.137Z,0.00
2019-03-06T03:23:12.061Z,0.00
2019-03-06T03:24:12.044Z,0.00
2019-03-06T03:25:12.035Z,0.00
2019-03-06T03:26:12.028Z,0.00
2019-03-06T03:27:12.036Z,0.00
2019-03-06T03:28:12.013Z,0.00
2019-03-06T03:29:12.002Z,0.00
2019-03-06T03:30:12.006Z,0.00
2019-03-06T03:31:11.991Z,0.00
2019-03-06T03:32:11.981Z,0.00
2019-03-06T03:33:11.982Z,0.00
2019-03-06T03:34:11.965Z,0.00
2019-03-06T03:35:11.958Z,0.00
2019-03-06T03:36:11.950Z,0.00
2019-03-06T03:37:11.940Z,0.00
2019-03-06T03:38:11.937Z,0.00
2019-03-06T03:39:11.942Z,0.00
2019-03-06T03:40:11.921Z,0.00
2019-03-06T03:41:11.917Z,0.00
2019-03-06T03:42:11.913Z,0.00
2019-03-06T03:43:11.899Z,0.00
2019-03-06T03:44:11.889Z,0.00
2019-03-06T03:45:11.880Z,0.00
2019-03-06T03:46:11.873Z,0.00
2019-03-06T03:47:11.892Z,0.00
2019-03-06T03:48:11.871Z,0.00
2019-03-06T03:49:11.855Z,0.00
2019-03-06T03:50:11.883Z,0.00
2019-03-06T03:51:11.835Z,0.00
2019-03-06T03:52:11.827Z,0.00
2019-03-06T03:53:11.815Z,0.00
2019-03-06T03:54:11.810Z,0.00
2019-03-06T03:55:11.799Z,0.00
2019-03-06T03:56:11.816Z,0.00
2019-03-06T03:57:11.787Z,0.00
2019-03-06T03:58:11.780Z,0.00
2019-03-06T03:59:11.773Z,0.00
2019-03-06T04:00:11.766Z,0.00
2019-03-06T04:01:11.757Z,0.00
2019-03-06T04:02:11.754Z,0.00
2019-03-06T04:03:11.753Z,0.00
2019-03-06T04:04:11.740Z,0.00
2019-03-06T04:05:11.723Z,0.00
2019-03-06T04:06:11.720Z,0.00
2019-03-06T04:07:11.711Z,0.00
2019-03-06T04:08:11.713Z,0.00
2019-03-06T04:09:11.696Z,0.00
2019-03-06T04:10:11.691Z,0.00
2019-03-06T04:11:11.683Z,0.00
2019-03-06T04:12:11.671Z,0.00
2019-03-06T04:13:11.666Z,0.00
2019-03-06T04:14:11.663Z,0.00
2019-03-06T04:15:11.661Z,0.00
2019-03-06T04:16:11.645Z,0.00
2019-03-06T04:17:11.641Z,0.00
2019-03-06T04:18:11.638Z,0.00
2019-03-06T04:19:11.623Z,0.00
2019-03-06T04:20:11.617Z,0.00
2019-03-06T04:21:11.611Z,0.00
2019-03-06T04:22:11.619Z,0.00
2019-03-06T04:23:11.590Z,0.00
2019-03-06T04:24:11.586Z,0.00
2019-03-06T04:25:11.577Z,0.00
2019-03-06T04:26:11.568Z,0.00
2019-03-06T04:27:11.563Z,0.00
2019-03-06T04:28:11.552Z,0.00
2019-03-06T04:29:11.546Z,0.00
2019-03-06T04:30:11.540Z,0.00
2019-03-06T04:31:11.539Z,0.00
2019-03-06T04:32:11.535Z,0.00
2019-03-06T04:33:11.521Z,0.00
2019-03-06T04:34:11.510Z,0.00
2019-03-06T04:35:11.502Z,0.00
2019-03-06T04:36:11.498Z,0.00
2019-03-06T04:37:11.486Z,0.00
2019-03-06T04:38:11.485Z,0.00
2019-03-06T04:39:11.472Z,0.00
2019-03-06T04:40:11.465Z,0.00
2019-03-06T04:41:11.459Z,0.00
2019-03-06T04:42:11.449Z,0.00
2019-03-06T04:43:11.443Z,0.00
2019-03-06T04:44:11.436Z,0.00
2019-03-06T04:45:11.427Z,0.00
2019-03-06T04:46:11.421Z,0.00
2019-03-06T04:47:11.412Z,0.00
2019-03-06T04:48:11.410Z,0.00
2019-03-06T04:49:11.398Z,0.00
2019-03-06T04:50:11.391Z,0.00
2019-03-06T04:51:13.123Z,0.00
2019-03-06T04:52:11.383Z,0.00
2019-03-06T04:53:11.368Z,0.00
2019-03-06T04:54:11.362Z,0.00
2019-03-06T04:55:11.354Z,0.00
2019-03-06T04:56:11.350Z,0.00
2019-03-06T04:57:11.340Z,0.00
2019-03-06T04:58:11.333Z,0.00
2019-03-06T04:59:11.342Z,0.00
2019-03-06T05:00:11.317Z,0.00
2019-03-06T05:01:11.312Z,0.00
2019-03-06T05:02:11.311Z,0.00
2019-03-06T05:03:11.302Z,0.00
2019-03-06T05:04:11.295Z,0.00
2019-03-06T05:05:11.283Z,0.00
2019-03-06T05:06:11.277Z,0.00
2019-03-06T05:07:11.285Z,0.00
2019-03-06T05:08:11.261Z,0.00
2019-03-06T05:09:11.251Z,0.00
2019-03-06T05:10:11.247Z,0.00
2019-03-06T05:11:11.238Z,0.00
2019-03-06T05:12:11.230Z,0.00
2019-03-06T05:13:11.223Z,0.00
2019-03-06T05:14:11.215Z,0.00
2019-03-06T05:15:11.209Z,0.00
2019-03-06T05:16:11.203Z,0.00
2019-03-06T05:17:11.192Z,0.00
2019-03-06T05:18:11.189Z,0.00
2019-03-06T05:19:11.180Z,0.00
2019-03-06T05:20:11.172Z,0.00
2019-03-06T05:21:11.164Z,0.00
2019-03-06T05:22:11.158Z,0.00
2019-03-06T05:23:11.155Z,0.00
2019-03-06T05:24:11.145Z,0.00
2019-03-06T05:25:11.137Z,0.00
2019-03-06T05:26:11.129Z,0.00
2019-03-06T05:27:11.123Z,0.00
2019-03-06T05:28:11.123Z,0.00
2019-03-06T05:29:11.107Z,0.00
2019-03-06T05:30:11.100Z,0.00
2019-03-06T05:31:11.094Z,0.00
2019-03-06T05:32:11.097Z,0.00
2019-03-06T05:33:11.081Z,0.00
2019-03-06T05:34:11.069Z,0.00
2019-03-06T05:35:11.077Z,0.00
2019-03-06T05:36:11.080Z,0.00
2019-03-06T05:37:11.052Z,0.00
2019-03-06T05:38:11.051Z,0.00
2019-03-06T05:39:11.059Z,0.00
2019-03-06T05:40:11.032Z,0.00
2019-03-06T05:41:11.026Z,0.00
2019-03-06T05:42:11.020Z,0.00
2019-03-06T05:43:11.035Z,0.00
2019-03-06T05:44:11.004Z,0.00
2019-03-06T05:45:11.031Z,0.00
2019-03-06T05:46:10.997Z,0.00
2019-03-06T05:47:10.985Z,0.00
2019-03-06T05:48:10.978Z,0.00
2019-03-06T05:49:10.966Z,0.00
2019-03-06T05:50:11.013Z,0.00
2019-03-06T05:51:10.975Z,0.00
2019-03-06T05:52:10.950Z,0.00
2019-03-06T05:53:10.943Z,0.00
2019-03-06T05:54:10.933Z,0.00
2019-03-06T05:55:10.926Z,5.63
2019-03-06T05:56:10.928Z,5.63
2019-03-06T05:57:10.914Z,5.63
2019-03-06T05:58:10.923Z,5.63
2019-03-06T05:59:10.902Z,5.63
2019-03-06T06:00:10.895Z,5.63
2019-03-06T06:01:10.890Z,5.63
2019-03-06T06:02:10.881Z,11.25
2019-03-06T06:03:10.874Z,11.25
2019-03-06T06:04:10.869Z,11.25
2019-03-06T06:05:10.871Z,11.25
2019-03-06T06:06:10.855Z,11.25
2019-03-06T06:07:10.871Z,11.25
2019-03-06T06:08:10.837Z,11.25
2019-03-06T06:09:10.836Z,11.25
2019-03-06T06:10:10.827Z,11.25
2019-03-06T06:11:10.825Z,11.25
2019-03-06T06:12:10.821Z,11.25
2019-03-06T06:13:10.804Z,11.25
2019-03-06T06:14:10.799Z,11.25
2019-03-06T06:15:10.793Z,11.25
2019-03-06T06:16:10.786Z,11.25
2019-03-06T06:17:10.782Z,11.25
2019-03-06T06:18:10.772Z,11.25
2019-03-06T06:19:10.767Z,11.25
2019-03-06T06:20:10.762Z,11.25
2019-03-06T06:21:10.752Z,11.25
2019-03-06T06:22:10.747Z,11.25
2019-03-06T06:23:10.746Z,11.25
2019-03-06T06:24:10.741Z,11.25
2019-03-06T06:25:10.728Z,11.25
2019-03-06T06:26:10.720Z,11.25
2019-03-06T06:27:10.712Z,11.25
2019-03-06T06:28:10.723Z,11.25
2019-03-06T06:29:10.700Z,11.25
2019-03-06T06:30:10.693Z,11.25
2019-03-06T06:31:10.687Z,11.25
2019-03-06T06:32:10.679Z,11.25
2019-03-06T06:33:10.671Z,11.25
2019-03-06T06:34:10.670Z,11.25
2019-03-06T06:35:10.678Z,16.88
2019-03-06T06:36:10.656Z,16.88
2019-03-06T06:37:10.651Z,16.88
2019-03-06T06:38:10.644Z,16.88
2019-03-06T06:39:10.643Z,16.88
2019-03-06T06:40:10.626Z,16.88
2019-03-06T06:41:10.622Z,22.50
2019-03-06T06:42:10.616Z,28.13
2019-03-06T06:43:10.613Z,28.13
2019-03-06T06:44:10.602Z,33.75
2019-03-06T06:45:10.596Z,33.75
2019-03-06T06:46:10.601Z,33.75
2019-03-06T06:47:10.591Z,39.38
2019-03-06T06:48:10.579Z,39.38
2019-03-06T06:49:10.572Z,39.38
2019-03-06T06:50:10.564Z,39.38
2019-03-06T06:51:10.563Z,39.38
2019-03-06T06:52:10.551Z,39.38
2019-03-06T06:53:10.551Z,33.75
2019-03-06T06:54:10.537Z,33.75
2019-03-06T06:55:10.535Z,33.75
2019-03-06T06:56:10.524Z,28.13
2019-03-06T06:57:10.517Z,33.75
2019-03-06T06:58:10.511Z,33.75
2019-03-06T06:59:10.508Z,33.75
2019-03-06T07:00:10.502Z,33.75
2019-03-06T07:01:10.495Z,33.75
2019-03-06T07:02:10.488Z,33.75
2019-03-06T07:03:10.482Z,39.38
2019-03-06T07:04:10.477Z,39.38
2019-03-06T07:05:10.469Z,45.00
2019-03-06T07:06:10.467Z,45.00
2019-03-06T07:07:10.459Z,45.00
2019-03-06T07:08:10.453Z,45.00
2019-03-06T07:09:10.448Z,50.63
2019-03-06T07:10:10.439Z,50.63
2019-03-06T07:11:10.444Z,50.63
2019-03-06T07:12:10.435Z,56.25
2019-03-06T07:13:10.421Z,56.25
2019-03-06T07:14:10.413Z,56.25
2019-03-06T07:15:10.410Z,61.88
2019-03-06T07:16:10.405Z,61.88
2019-03-06T07:17:10.399Z,61.88
2019-03-06T07:18:10.396Z,56.25
2019-03-06T07:19:10.387Z,50.63
2019-03-06T07:20:10.381Z,61.88
2019-03-06T07:21:10.375Z,67.50
2019-03-06T07:22:10.394Z,84.38
2019-03-06T07:23:10.367Z,84.38
2019-03-06T07:24:10.359Z,106.88
2019-03-06T07:25:10.352Z,208.13
2019-03-06T07:26:10.347Z,168.75
2019-03-06T07:27:10.354Z,118.13
2019-03-06T07:28:10.334Z,106.88
2019-03-06T07:29:10.330Z,112.50
2019-03-06T07:30:10.330Z,129.38
2019-03-06T07:31:10.322Z,106.88
2019-03-06T07:32:10.314Z,101.25
2019-03-06T07:33:10.307Z,101.25
2019-03-06T07:34:10.303Z,101.25
2019-03-06T07:35:10.298Z,101.25
2019-03-06T07:36:10.293Z,90.00
2019-03-06T07:37:10.285Z,84.38
2019-03-06T07:38:10.281Z,84.38
2019-03-06T07:39:10.278Z,95.63
2019-03-06T07:40:10.274Z,95.63
2019-03-06T07:41:10.273Z,95.63
2019-03-06T07:42:10.262Z,90.00
2019-03-06T07:43:10.257Z,90.00
2019-03-06T07:44:10.253Z,90.00
2019-03-06T07:45:10.249Z,90.00
2019-03-06T07:46:10.239Z,84.38
2019-03-06T07:47:10.236Z,84.38
2019-03-06T07:48:10.230Z,84.38
2019-03-06T07:49:10.224Z,84.38
2019-03-06T07:50:10.218Z,84.38
2019-03-06T07:51:10.216Z,84.38
2019-03-06T07:52:10.209Z,78.75
2019-03-06T07:53:10.205Z,84.38
2019-03-06T07:54:10.199Z,78.75
2019-03-06T07:55:10.194Z,78.75
2019-03-06T07:56:10.191Z,78.75
2019-03-06T07:57:10.184Z,84.38
2019-03-06T07:58:10.176Z,78.75
2019-03-06T07:59:10.173Z,78.75
2019-03-06T08:00:10.171Z,84.38
2019-03-06T08:01:16.832Z,84.38
2019-03-06T08:02:10.156Z,84.38
2019-03-06T08:03:10.157Z,90.00
2019-03-06T08:04:10.163Z,90.00
2019-03-06T08:05:10.142Z,95.63
2019-03-06T08:06:10.138Z,95.63
2019-03-06T08:07:10.130Z,106.88
2019-03-06T08:08:10.125Z,106.88
2019-03-06T08:09:10.117Z,112.50
2019-03-06T08:10:10.113Z,123.75
2019-03-06T08:11:10.108Z,135.00
2019-03-06T08:12:10.127Z,140.63
2019-03-06T08:13:10.107Z,151.88
2019-03-06T08:14:10.088Z,157.50
2019-03-06T08:15:10.091Z,163.13
2019-03-06T08:16:10.083Z,180.00
2019-03-06T08:17:10.082Z,191.25
2019-03-06T08:18:10.072Z,213.75
2019-03-06T08:19:10.069Z,292.50
2019-03-06T08:20:10.080Z,466.88
2019-03-06T08:21:10.058Z,393.75
2019-03-06T08:22:10.053Z,348.75
2019-03-06T08:23:10.049Z,247.50
2019-03-06T08:24:10.044Z,236.25
2019-03-06T08:25:10.041Z,225.00
2019-03-06T08:26:10.035Z,225.00
2019-03-06T08:27:10.032Z,208.13
2019-03-06T08:28:10.033Z,213.75
2019-03-06T08:29:10.021Z,213.75
2019-03-06T08:30:10.015Z,225.00
2019-03-06T08:31:10.013Z,258.75
2019-03-06T08:32:10.004Z,388.13
2019-03-06T08:33:17.941Z,545.63
2019-03-06T08:34:10.003Z,500.63
2019-03-06T08:35:09.993Z,1108.13
2019-03-06T08:36:09.992Z,888.75
2019-03-06T08:37:09.981Z,894.38
2019-03-06T08:38:09.979Z,804.38
2019-03-06T08:39:10.932Z,1186.88
2019-03-06T08:40:09.974Z,877.50
2019-03-06T08:41:09.972Z,1276.88
2019-03-06T08:42:10.009Z,1226.25
2019-03-06T08:43:09.965Z,1001.25
2019-03-06T08:44:09.963Z,1108.13
2019-03-06T08:45:09.964Z,1125.00
2019-03-06T08:46:10.003Z,1248.75
2019-03-06T08:47:10.938Z,1344.38
2019-03-06T08:48:09.957Z,1395.00
2019-03-06T08:49:09.954Z,1676.25
2019-03-06T08:50:09.956Z,1642.50
2019-03-06T08:51:09.981Z,1440.00
2019-03-06T08:52:09.952Z,1440.00
2019-03-06T08:53:09.975Z,1434.38
2019-03-06T08:54:09.961Z,1305.00
2019-03-06T08:55:11.073Z,1057.50
2019-03-06T08:56:09.992Z,1091.25
2019-03-06T08:57:09.958Z,978.75
2019-03-06T08:58:09.955Z,956.25
2019-03-06T08:59:11.493Z,1254.38
2019-03-06T09:00:09.974Z,1316.25
2019-03-06T09:01:09.959Z,1248.75
2019-03-06T09:02:15.606Z,1175.63
2019-03-06T09:03:09.964Z,956.25
2019-03-06T09:04:09.970Z,1237.50
2019-03-06T09:05:09.966Z,1158.75
2019-03-06T09:06:09.972Z,1265.63
2019-03-06T09:07:09.983Z,1276.88
2019-03-06T09:08:09.975Z,1170.00
2019-03-06T09:09:09.983Z,1186.88
2019-03-06T09:10:09.977Z,1170.00
2019-03-06T09:11:09.994Z,1085.63
2019-03-06T09:12:09.988Z,1068.75
2019-03-06T09:13:09.993Z,1080.00
2019-03-06T09:14:09.997Z,973.13
2019-03-06T09:15:09.996Z,1231.88
2019-03-06T09:16:10.006Z,568.13
2019-03-06T09:17:10.002Z,1310.63
2019-03-06T09:18:10.025Z,1170.00
2019-03-06T09:19:10.015Z,1130.63
2019-03-06T09:20:10.022Z,1119.38
2019-03-06T09:21:10.027Z,905.63
2019-03-06T09:22:10.023Z,320.63
2019-03-06T09:23:10.024Z,866.25
2019-03-06T09:24:10.053Z,810.00
2019-03-06T09:25:10.036Z,320.63
2019-03-06T09:26:10.035Z,421.88
2019-03-06T09:27:10.036Z,815.63
2019-03-06T09:28:10.081Z,472.50
2019-03-06T09:29:10.044Z,253.13
2019-03-06T09:30:15.986Z,185.63
2019-03-06T09:31:10.052Z,191.25
2019-03-06T09:32:10.048Z,174.38
2019-03-06T09:34:10.054Z,168.75
2019-03-06T09:35:10.056Z,157.50
2019-03-06T09:36:10.084Z,151.88
2019-03-06T09:37:10.087Z,151.88
2019-03-06T09:38:11.294Z,146.25
2019-03-06T09:39:10.069Z,135.00
2019-03-06T09:40:31.062Z,118.13
2019-03-06T09:41:10.058Z,118.13
2019-03-06T09:42:10.053Z,118.13
2019-03-06T09:43:10.051Z,106.88
2019-03-06T09:44:10.044Z,106.88
2019-03-06T09:45:10.043Z,106.88
2019-03-06T09:46:31.052Z,106.88
2019-03-06T09:47:10.107Z,101.25
2019-03-06T09:48:10.052Z,95.63
2019-03-06T09:49:11.733Z,101.25
2019-03-06T09:50:11.031Z,95.63
2019-03-06T09:51:10.031Z,101.25
2019-03-06T09:52:31.039Z,106.88
2019-03-06T09:53:10.026Z,112.50
2019-03-06T09:54:10.039Z,101.25
2019-03-06T09:55:10.026Z,106.88
2019-03-06T09:56:10.016Z,101.25
2019-03-06T09:57:10.016Z,101.25
2019-03-06T09:58:31.018Z,118.13
2019-03-06T09:59:10.007Z,112.50
2019-03-06T10:00:10.003Z,112.50
2019-03-06T10:01:09.996Z,106.88
2019-03-06T10:02:09.997Z,106.88
2019-03-06T10:03:09.990Z,112.50
2019-03-06T10:04:31.002Z,112.50
2019-03-06T10:05:09.985Z,123.75
2019-03-06T10:06:10.984Z,135.00
2019-03-06T10:07:09.992Z,118.13
2019-03-06T10:08:09.987Z,123.75
2019-03-06T10:09:09.977Z,129.38
2019-03-06T10:10:30.976Z,123.75
2019-03-06T10:11:09.965Z,123.75
2019-03-06T10:12:09.961Z,135.00
2019-03-06T10:13:09.958Z,123.75
2019-03-06T10:14:09.959Z,118.13
2019-03-06T10:15:09.964Z,123.75
2019-03-06T10:16:30.956Z,129.38
2019-03-06T10:17:09.943Z,146.25
2019-03-06T10:18:09.938Z,146.25
2019-03-06T10:19:10.524Z,146.25
2019-03-06T10:20:09.931Z,140.63
2019-03-06T10:21:09.927Z,135.00
2019-03-06T10:22:30.934Z,146.25
2019-03-06T10:23:09.923Z,151.88
2019-03-06T10:24:09.918Z,151.88
2019-03-06T10:25:09.915Z,151.88
2019-03-06T10:26:09.912Z,157.50
2019-03-06T10:27:09.910Z,163.13
2019-03-06T10:28:30.937Z,163.13
2019-03-06T10:29:09.913Z,163.13
2019-03-06T10:30:09.897Z,157.50
2019-03-06T10:31:09.896Z,163.13
2019-03-06T10:32:09.922Z,146.25
2019-03-06T10:33:09.886Z,151.88
2019-03-06T10:34:30.894Z,146.25
2019-03-06T10:35:10.479Z,146.25
2019-03-06T10:36:09.888Z,140.63
2019-03-06T10:37:09.883Z,140.63
2019-03-06T10:38:16.485Z,135.00
2019-03-06T10:39:09.862Z,135.00
2019-03-06T10:40:30.868Z,129.38
2019-03-06T10:41:09.861Z,123.75
2019-03-06T10:42:09.857Z,118.13
2019-03-06T10:43:09.857Z,106.88
2019-03-06T10:44:09.851Z,101.25
2019-03-06T10:45:09.841Z,95.63
2019-03-06T10:46:30.845Z,95.63
2019-03-06T10:47:09.833Z,95.63
2019-03-06T10:48:09.829Z,90.00
2019-03-06T10:49:09.825Z,90.00
2019-03-06T10:50:09.836Z,90.00
2019-03-06T10:51:09.824Z,90.00
2019-03-06T10:52:30.830Z,95.63
2019-03-06T10:53:09.816Z,95.63
2019-03-06T10:54:09.809Z,101.25
2019-03-06T10:55:09.809Z,106.88
2019-03-06T10:56:09.830Z,112.50
2019-03-06T10:57:11.785Z,112.50
2019-03-06T10:58:30.809Z,118.13
2019-03-06T10:59:09.796Z,118.13
2019-03-06T11:00:09.789Z,123.75
2019-03-06T11:01:09.784Z,123.75
2019-03-06T11:02:09.803Z,129.38
2019-03-06T11:03:09.775Z,129.38
2019-03-06T11:04:30.778Z,129.38
2019-03-06T11:05:09.799Z,123.75
2019-03-06T11:06:09.762Z,123.75
2019-03-06T11:07:09.759Z,123.75
2019-03-06T11:08:09.753Z,123.75
2019-03-06T11:09:09.773Z,123.75
2019-03-06T11:10:30.757Z,118.13
2019-03-06T11:11:09.750Z,112.50
2019-03-06T11:12:09.746Z,112.50
2019-03-06T11:13:09.734Z,112.50
2019-03-06T11:14:09.742Z,112.50
2019-03-06T11:15:09.726Z,112.50
2019-03-06T11:16:30.731Z,112.50
2019-03-06T11:17:09.723Z,106.88
2019-03-06T11:18:09.720Z,106.88
2019-03-06T11:19:09.715Z,101.25
2019-03-06T11:20:09.712Z,101.25
2019-03-06T11:21:09.711Z,101.25
2019-03-06T11:22:30.710Z,101.25
2019-03-06T11:23:09.701Z,101.25
2019-03-06T11:24:09.694Z,101.25
2019-03-06T11:25:09.721Z,101.25
2019-03-06T11:26:09.693Z,101.25
2019-03-06T11:27:09.685Z,101.25
2019-03-06T11:28:30.688Z,95.63
2019-03-06T11:29:09.684Z,95.63
2019-03-06T11:30:09.675Z,90.00
2019-03-06T11:31:09.666Z,90.00
2019-03-06T11:32:09.663Z,90.00
2019-03-06T11:33:09.688Z,84.38
2019-03-06T11:34:30.658Z,84.38
2019-03-06T11:35:09.653Z,84.38
2019-03-06T11:36:09.649Z,84.38
2019-03-06T11:37:09.645Z,90.00
2019-03-06T11:38:09.637Z,84.38
2019-03-06T11:39:09.637Z,84.38
2019-03-06T11:40:30.737Z,84.38
2019-03-06T11:41:09.625Z,84.38
2019-03-06T11:42:09.626Z,84.38
2019-03-06T11:43:09.618Z,84.38
2019-03-06T11:44:09.616Z,84.38
2019-03-06T11:45:09.615Z,84.38
2019-03-06T11:46:30.616Z,84.38
2019-03-06T11:47:09.635Z,84.38
2019-03-06T11:48:09.599Z,84.38
2019-03-06T11:49:09.598Z,84.38
2019-03-06T11:50:09.597Z,84.38
2019-03-06T11:51:09.594Z,84.38
2019-03-06T11:52:34.771Z,84.38
2019-03-06T11:53:09.586Z,84.38
2019-03-06T11:54:09.605Z,84.38
2019-03-06T11:55:09.720Z,90.00
2019-03-06T11:56:09.587Z,90.00
2019-03-06T11:57:09.569Z,90.00
2019-03-06T11:58:30.584Z,90.00
2019-03-06T11:59:09.580Z,90.00
2019-03-06T12:00:09.560Z,90.00
2019-03-06T12:01:09.552Z,90.00
2019-03-06T12:02:09.552Z,90.00
2019-03-06T12:03:09.545Z,90.00
2019-03-06T12:04:30.617Z,95.63
2019-03-06T12:05:09.548Z,95.63
2019-03-06T12:06:09.544Z,95.63
2019-03-06T12:07:09.534Z,95.63
2019-03-06T12:08:09.533Z,101.25
2019-03-06T12:09:09.527Z,101.25
2019-03-06T12:10:31.418Z,101.25
2019-03-06T12:11:09.520Z,106.88
2019-03-06T12:12:09.519Z,106.88
2019-03-06T12:13:09.514Z,112.50
2019-03-06T12:14:09.515Z,112.50
2019-03-06T12:15:09.509Z,112.50
2019-03-06T12:16:30.533Z,112.50
2019-03-06T12:17:09.500Z,112.50
2019-03-06T12:18:09.571Z,112.50
2019-03-06T12:19:09.504Z,112.50
2019-03-06T12:20:10.146Z,106.88
2019-03-06T12:21:09.484Z,106.88
2019-03-06T12:22:30.486Z,101.25
2019-03-06T12:23:09.511Z,101.25
2019-03-06T12:24:09.505Z,95.63
2019-03-06T12:25:09.476Z,95.63
2019-03-06T12:26:09.470Z,90.00
2019-03-06T12:27:09.473Z,90.00
2019-03-06T12:28:30.468Z,90.00
2019-03-06T12:29:09.462Z,90.00
2019-03-06T12:30:09.455Z,90.00
2019-03-06T12:31:09.451Z,90.00
2019-03-06T12:32:09.452Z,90.00
2019-03-06T12:33:09.447Z,84.38
2019-03-06T12:34:32.038Z,90.00
2019-03-06T12:35:09.438Z,84.38
2019-03-06T12:36:09.442Z,90.00
2019-03-06T12:37:09.436Z,90.00
2019-03-06T12:38:10.882Z,90.00
2019-03-06T12:39:09.428Z,90.00
2019-03-06T12:40:30.437Z,90.00
2019-03-06T12:41:09.428Z,90.00
2019-03-06T12:42:14.335Z,90.00
2019-03-06T12:43:09.409Z,90.00
2019-03-06T12:44:10.703Z,90.00
2019-03-06T12:45:09.406Z,90.00
2019-03-06T12:46:31.058Z,84.38
2019-03-06T12:47:10.898Z,84.38
2019-03-06T12:48:09.397Z,84.38
2019-03-06T12:49:09.394Z,84.38
2019-03-06T12:50:09.391Z,78.75
2019-03-06T12:51:09.515Z,78.75
2019-03-06T12:52:30.934Z,78.75
2019-03-06T12:53:09.414Z,84.38
2019-03-06T12:54:09.377Z,84.38
2019-03-06T12:55:09.369Z,90.00
2019-03-06T12:56:09.461Z,95.63
2019-03-06T12:57:09.383Z,95.63